createdAt,value
2024-03-02T00:00:00.501Z,100350
2024-03-02T00:01:00.553Z,100360
2024-03-02T00:02:00.496Z,100360
2024-03-02T00:03:00.580Z,100360
2024-03-02T00:04:00.510Z,100360
2024-03-02T00:05:00.496Z,100360
2024-03-02T00:06:00.495Z,100360
2024-03-02T00:07:00.556Z,100360
2024-03-02T00:08:00.630Z,100360
2024-03-02T00:09:00.523Z,100360
2024-03-02T00:10:00.736Z,100360
2024-03-02T00:11:01.331Z,100360
2024-03-02T00:12:00.663Z,100360
2024-03-02T00:13:00.670Z,100360
2024-03-02T00:14:00.528Z,100360
2024-03-02T00:15:00.492Z,100370
2024-03-02T00:16:00.548Z,100370
2024-03-02T00:17:00.505Z,100360
2024-03-02T00:18:01.035Z,100360
2024-03-02T00:19:01.610Z,100360
2024-03-02T00:20:00.549Z,100360
2024-03-02T00:21:00.821Z,100360
2024-03-02T00:22:01.164Z,100360
2024-03-02T00:23:05.576Z,100360
2024-03-02T00:24:01.394Z,100360
2024-03-02T00:25:00.514Z,100360
2024-03-02T00:26:00.523Z,100360
2024-03-02T00:27:01.201Z,100370
2024-03-02T00:28:00.504Z,100370
2024-03-02T00:29:00.511Z,100360
2024-03-02T00:30:01.041Z,100360
2024-03-02T00:31:08.731Z,100370
2024-03-02T00:32:00.986Z,100370
2024-03-02T00:33:00.575Z,100370
2024-03-02T00:34:03.178Z,100370
2024-03-02T00:35:00.493Z,100370
2024-03-02T00:36:01.384Z,100370
2024-03-02T00:37:00.538Z,100370
2024-03-02T00:38:04.489Z,100370
2024-03-02T00:39:00.585Z,100370
2024-03-02T00:40:00.753Z,100370
2024-03-02T00:41:04.014Z,100370
2024-03-02T00:42:00.458Z,100370
2024-03-02T00:43:01.830Z,100370
2024-03-02T00:44:01.226Z,100370
2024-03-02T00:45:00.515Z,100370
2024-03-02T00:46:00.523Z,100370
2024-03-02T00:47:00.514Z,100370
2024-03-02T00:48:00.557Z,100370
2024-03-02T00:49:01.632Z,100370
2024-03-02T00:50:00.591Z,100370
2024-03-02T00:51:00.529Z,100380
2024-03-02T00:52:00.561Z,100380
2024-03-02T00:53:01.822Z,100370
2024-03-02T00:54:01.381Z,100370
2024-03-02T00:55:00.596Z,100370
2024-03-02T00:56:01.038Z,100370
2024-03-02T00:57:00.478Z,100370
2024-03-02T00:58:00.508Z,100370
2024-03-02T00:59:00.712Z,100370
2024-03-02T01:00:00.815Z,100370
2024-03-02T01:01:00.670Z,100370
2024-03-02T01:02:00.478Z,100370
2024-03-02T01:03:00.492Z,100370
2024-03-02T01:04:00.531Z,100370
2024-03-02T01:05:00.500Z,100370
2024-03-02T01:06:00.635Z,100370
2024-03-02T01:07:00.613Z,100380
2024-03-02T01:08:00.489Z,100380
2024-03-02T01:09:00.507Z,100370
2024-03-02T01:10:00.599Z,100370
2024-03-02T01:11:00.630Z,100370
2024-03-02T01:12:00.533Z,100370
2024-03-02T01:13:00.734Z,100370
2024-03-02T01:14:00.468Z,100370
2024-03-02T01:15:00.492Z,100370
2024-03-02T01:16:00.586Z,100370
2024-03-02T01:17:00.507Z,100380
2024-03-02T01:18:00.486Z,100380
2024-03-02T01:19:00.611Z,100370
2024-03-02T01:20:00.509Z,100370
2024-03-02T01:21:00.484Z,100370
2024-03-02T01:22:00.561Z,100370
2024-03-02T01:23:00.485Z,100380
2024-03-02T01:24:00.469Z,100380
2024-03-02T01:25:00.590Z,100370
2024-03-02T01:26:00.471Z,100370
2024-03-02T01:27:00.496Z,100380
2024-03-02T01:28:00.690Z,100380
2024-03-02T01:29:00.471Z,100370
2024-03-02T01:30:00.512Z,100370
2024-03-02T01:31:00.551Z,100380
2024-03-02T01:32:00.485Z,100380
2024-03-02T01:33:00.537Z,100380
2024-03-02T01:34:00.568Z,100380
2024-03-02T01:35:00.529Z,100380
2024-03-02T01:36:00.547Z,100380
2024-03-02T01:37:00.539Z,100370
2024-03-02T01:38:00.729Z,100370
2024-03-02T01:39:00.555Z,100370
2024-03-02T01:40:00.899Z,100370
2024-03-02T01:41:00.538Z,100370
2024-03-02T01:42:00.512Z,100370
2024-03-02T01:43:00.624Z,100370
2024-03-02T01:44:00.611Z,100370
2024-03-02T01:45:00.595Z,100370
2024-03-02T01:46:00.614Z,100370
2024-03-02T01:47:00.587Z,100370
2024-03-02T01:48:00.795Z,100370
2024-03-02T01:49:00.583Z,100370
2024-03-02T01:50:00.933Z,100370
2024-03-02T01:51:00.470Z,100370
2024-03-02T01:52:00.528Z,100370
2024-03-02T01:53:00.738Z,100370
2024-03-02T01:54:00.541Z,100370
2024-03-02T01:55:00.678Z,100370
2024-03-02T01:56:00.484Z,100370
2024-03-02T01:57:00.601Z,100370
2024-03-02T01:58:01.146Z,100370
2024-03-02T01:59:00.454Z,100380
2024-03-02T02:00:00.750Z,100380
2024-03-02T02:01:00.629Z,100370
2024-03-02T02:02:00.533Z,100370
2024-03-02T02:03:00.508Z,100370
2024-03-02T02:04:00.570Z,100370
2024-03-02T02:05:00.533Z,100370
2024-03-02T02:06:00.514Z,100370
2024-03-02T02:07:00.531Z,100370
2024-03-02T02:08:01.122Z,100370
2024-03-02T02:09:00.601Z,100370
2024-03-02T02:10:00.701Z,100370
2024-03-02T02:11:00.525Z,100380
2024-03-02T02:12:01.184Z,100380
2024-03-02T02:13:00.631Z,100370
2024-03-02T02:14:00.496Z,100370
2024-03-02T02:15:00.763Z,100370
2024-03-02T02:16:05.771Z,100370
2024-03-02T02:17:00.514Z,100370
2024-03-02T02:18:00.890Z,100370
2024-03-02T02:19:00.523Z,100370
2024-03-02T02:20:00.506Z,100370
2024-03-02T02:21:00.490Z,100370
2024-03-02T02:22:00.515Z,100370
2024-03-02T02:23:02.410Z,100370
2024-03-02T02:24:00.569Z,100370
2024-03-02T02:25:00.506Z,100370
2024-03-02T02:26:00.484Z,100370
2024-03-02T02:27:00.522Z,100370
2024-03-02T02:28:00.842Z,100370
2024-03-02T02:29:00.560Z,100370
2024-03-02T02:30:00.478Z,100370
2024-03-02T02:31:00.579Z,100370
2024-03-02T02:32:00.524Z,100370
2024-03-02T02:33:00.659Z,100370
2024-03-02T02:34:00.494Z,100370
2024-03-02T02:35:00.524Z,100360
2024-03-02T02:36:00.509Z,100360
2024-03-02T02:37:00.669Z,100360
2024-03-02T02:38:00.723Z,100360
2024-03-02T02:39:02.574Z,100360
2024-03-02T02:40:00.618Z,100360
2024-03-02T02:41:00.506Z,100360
2024-03-02T02:42:00.499Z,100360
2024-03-02T02:43:00.641Z,100360
2024-03-02T02:44:00.472Z,100360
2024-03-02T02:45:00.510Z,100360
2024-03-02T02:46:00.611Z,100360
2024-03-02T02:47:00.493Z,100360
2024-03-02T02:48:00.571Z,100360
2024-03-02T02:49:00.600Z,100360
2024-03-02T02:50:01.109Z,100360
2024-03-02T02:51:00.522Z,100360
2024-03-02T02:52:00.519Z,100360
2024-03-02T02:53:00.480Z,100350
2024-03-02T02:54:00.512Z,100350
2024-03-02T02:55:00.504Z,100360
2024-03-02T02:56:00.475Z,100360
2024-03-02T02:57:00.503Z,100350
2024-03-02T02:58:00.688Z,100350
2024-03-02T02:59:00.503Z,100360
2024-03-02T03:00:01.251Z,100360
2024-03-02T03:01:00.650Z,100360
2024-03-02T03:02:00.498Z,100360
2024-03-02T03:03:00.498Z,100360
2024-03-02T03:04:00.524Z,100360
2024-03-02T03:05:00.518Z,100360
2024-03-02T03:06:00.523Z,100360
2024-03-02T03:07:00.546Z,100360
2024-03-02T03:08:00.524Z,100360
2024-03-02T03:09:00.495Z,100350
2024-03-02T03:10:00.695Z,100350
2024-03-02T03:11:00.534Z,100360
2024-03-02T03:12:00.514Z,100360
2024-03-02T03:13:00.529Z,100360
2024-03-02T03:14:00.477Z,100360
2024-03-02T03:15:00.906Z,100360
2024-03-02T03:16:00.587Z,100360
2024-03-02T03:17:00.523Z,100360
2024-03-02T03:18:00.551Z,100360
2024-03-02T03:19:00.527Z,100360
2024-03-02T03:20:00.953Z,100360
2024-03-02T03:21:00.456Z,100360
2024-03-02T03:22:00.515Z,100360
2024-03-02T03:23:00.486Z,100360
2024-03-02T03:24:00.470Z,100360
2024-03-02T03:25:00.530Z,100360
2024-03-02T03:26:00.533Z,100360
2024-03-02T03:27:00.592Z,100360
2024-03-02T03:28:00.505Z,100360
2024-03-02T03:29:00.499Z,100360
2024-03-02T03:30:00.505Z,100360
2024-03-02T03:31:00.510Z,100370
2024-03-02T03:32:00.465Z,100370
2024-03-02T03:33:00.485Z,100360
2024-03-02T03:34:00.566Z,100360
2024-03-02T03:35:00.534Z,100370
2024-03-02T03:36:00.609Z,100370
2024-03-02T03:37:00.623Z,100370
2024-03-02T03:38:00.658Z,100370
2024-03-02T03:39:00.469Z,100370
2024-03-02T03:40:01.118Z,100370
2024-03-02T03:41:00.495Z,100370
2024-03-02T03:42:00.692Z,100370
2024-03-02T03:43:00.520Z,100370
2024-03-02T03:44:00.490Z,100370
2024-03-02T03:45:00.537Z,100370
2024-03-02T03:46:00.511Z,100370
2024-03-02T03:47:00.500Z,100370
2024-03-02T03:48:00.518Z,100370
2024-03-02T03:49:00.539Z,100370
2024-03-02T03:50:00.471Z,100370
2024-03-02T03:51:00.487Z,100370
2024-03-02T03:52:00.539Z,100370
2024-03-02T03:53:00.480Z,100370
2024-03-02T03:54:00.480Z,100370
2024-03-02T03:55:00.677Z,100380
2024-03-02T03:56:00.505Z,100380
2024-03-02T03:57:00.535Z,100380
2024-03-02T03:58:00.630Z,100380
2024-03-02T03:59:00.484Z,100380
2024-03-02T04:00:00.488Z,100380
2024-03-02T04:01:00.582Z,100380
2024-03-02T04:02:00.491Z,100380
2024-03-02T04:03:00.534Z,100380
2024-03-02T04:04:00.529Z,100380
2024-03-02T04:05:00.582Z,100380
2024-03-02T04:06:00.485Z,100380
2024-03-02T04:07:00.696Z,100380
2024-03-02T04:08:00.491Z,100380
2024-03-02T04:09:00.523Z,100390
2024-03-02T04:10:00.604Z,100390
2024-03-02T04:11:00.487Z,100390
2024-03-02T04:12:00.525Z,100390
2024-03-02T04:13:00.521Z,100380
2024-03-02T04:14:00.520Z,100380
2024-03-02T04:15:00.492Z,100390
2024-03-02T04:16:00.536Z,100390
2024-03-02T04:17:00.494Z,100390
2024-03-02T04:18:00.483Z,100390
2024-03-02T04:19:00.514Z,100390
2024-03-02T04:20:00.557Z,100390
2024-03-02T04:21:00.517Z,100390
2024-03-02T04:22:05.575Z,100390
2024-03-02T04:23:00.535Z,100390
2024-03-02T04:24:00.781Z,100390
2024-03-02T04:25:00.807Z,100390
2024-03-02T04:26:00.579Z,100390
2024-03-02T04:27:00.498Z,100400
2024-03-02T04:28:00.609Z,100400
2024-03-02T04:29:00.505Z,100400
2024-03-02T04:30:00.560Z,100400
2024-03-02T04:31:00.530Z,100400
2024-03-02T04:32:00.559Z,100400
2024-03-02T04:33:00.556Z,100400
2024-03-02T04:34:00.505Z,100400
2024-03-02T04:35:00.531Z,100400
2024-03-02T04:36:00.508Z,100400
2024-03-02T04:37:00.656Z,100400
2024-03-02T04:38:00.453Z,100400
2024-03-02T04:39:00.473Z,100410
2024-03-02T04:40:00.613Z,100410
2024-03-02T04:41:00.478Z,100410
2024-03-02T04:42:00.490Z,100410
2024-03-02T04:43:00.581Z,100410
2024-03-02T04:44:00.492Z,100410
2024-03-02T04:45:00.987Z,100420
2024-03-02T04:46:00.799Z,100420
2024-03-02T04:47:00.509Z,100410
2024-03-02T04:48:00.477Z,100410
2024-03-02T04:49:00.604Z,100420
2024-03-02T04:50:00.591Z,100420
2024-03-02T04:51:00.487Z,100420
2024-03-02T04:52:00.504Z,100420
2024-03-02T04:53:00.473Z,100420
2024-03-02T04:54:00.489Z,100420
2024-03-02T04:55:00.536Z,100420
2024-03-02T04:56:00.545Z,100420
2024-03-02T04:57:00.469Z,100420
2024-03-02T04:58:00.645Z,100420
2024-03-02T04:59:00.488Z,100420
2024-03-02T05:00:00.659Z,100420
2024-03-02T05:01:00.609Z,100420
2024-03-02T05:02:00.494Z,100420
2024-03-02T05:03:00.707Z,100420
2024-03-02T05:04:00.501Z,100420
2024-03-02T05:05:00.890Z,100420
2024-03-02T05:06:00.509Z,100420
2024-03-02T05:07:00.489Z,100430
2024-03-02T05:08:00.468Z,100430
2024-03-02T05:09:00.484Z,100430
2024-03-02T05:10:00.628Z,100430
2024-03-02T05:11:00.550Z,100430
2024-03-02T05:12:02.483Z,100430
2024-03-02T05:13:01.350Z,100430
2024-03-02T05:14:00.468Z,100430
2024-03-02T05:15:00.804Z,100430
2024-03-02T05:16:00.550Z,100430
2024-03-02T05:17:00.477Z,100430
2024-03-02T05:18:00.901Z,100430
2024-03-02T05:19:00.589Z,100430
2024-03-02T05:20:00.453Z,100430
2024-03-02T05:21:00.700Z,100430
2024-03-02T05:22:00.513Z,100430
2024-03-02T05:23:00.522Z,100440
2024-03-02T05:24:00.508Z,100440
2024-03-02T05:25:00.861Z,100440
2024-03-02T05:26:00.472Z,100440
2024-03-02T05:27:00.494Z,100440
2024-03-02T05:28:00.528Z,100440
2024-03-02T05:29:00.507Z,100450
2024-03-02T05:30:00.725Z,100450
2024-03-02T05:31:00.735Z,100450
2024-03-02T05:32:00.498Z,100450
2024-03-02T05:33:00.464Z,100450
2024-03-02T05:34:00.668Z,100450
2024-03-02T05:35:00.511Z,100450
2024-03-02T05:36:00.502Z,100450
2024-03-02T05:37:00.685Z,100450
2024-03-02T05:38:00.480Z,100450
2024-03-02T05:39:00.547Z,100450
2024-03-02T05:40:00.736Z,100450
2024-03-02T05:41:00.830Z,100450
2024-03-02T05:42:00.492Z,100450
2024-03-02T05:43:00.542Z,100450
2024-03-02T05:44:00.537Z,100450
2024-03-02T05:45:00.685Z,100450
2024-03-02T05:46:00.709Z,100450
2024-03-02T05:47:00.468Z,100460
2024-03-02T05:48:00.541Z,100460
2024-03-02T05:49:00.696Z,100450
2024-03-02T05:50:00.568Z,100450
2024-03-02T05:51:00.526Z,100450
2024-03-02T05:52:00.567Z,100450
2024-03-02T05:53:00.539Z,100450
2024-03-02T05:54:00.507Z,100450
2024-03-02T05:55:00.612Z,100460
2024-03-02T05:56:03.561Z,100460
2024-03-02T05:57:00.499Z,100460
2024-03-02T05:58:00.630Z,100460
2024-03-02T05:59:00.547Z,100460
2024-03-02T06:00:00.708Z,100460
2024-03-02T06:01:01.200Z,100460
2024-03-02T06:02:00.534Z,100460
2024-03-02T06:03:00.546Z,100470
2024-03-02T06:04:00.574Z,100470
2024-03-02T06:05:00.659Z,100470
2024-03-02T06:06:00.561Z,100470
2024-03-02T06:07:00.713Z,100470
2024-03-02T06:08:00.567Z,100470
2024-03-02T06:09:01.691Z,100470
2024-03-02T06:10:00.792Z,100470
2024-03-02T06:11:00.673Z,100470
2024-03-02T06:12:00.599Z,100470
2024-03-02T06:13:00.880Z,100470
2024-03-02T06:14:00.459Z,100470
2024-03-02T06:15:00.537Z,100480
2024-03-02T06:16:00.558Z,100480
2024-03-02T06:17:00.562Z,100480
2024-03-02T06:18:00.580Z,100480
2024-03-02T06:19:00.880Z,100470
2024-03-02T06:20:00.641Z,100470
2024-03-02T06:21:00.662Z,100480
2024-03-02T06:22:00.516Z,100480
2024-03-02T06:23:00.672Z,100480
2024-03-02T06:24:00.584Z,100480
2024-03-02T06:25:00.550Z,100480
2024-03-02T06:26:00.732Z,100480
2024-03-02T06:27:00.545Z,100480
2024-03-02T06:28:00.700Z,100480
2024-03-02T06:29:00.474Z,100490
2024-03-02T06:30:00.521Z,100490
2024-03-02T06:31:00.569Z,100490
2024-03-02T06:32:00.682Z,100490
2024-03-02T06:33:00.535Z,100490
2024-03-02T06:34:00.568Z,100490
2024-03-02T06:35:00.476Z,100490
2024-03-02T06:36:00.673Z,100490
2024-03-02T06:37:00.598Z,100490
2024-03-02T06:38:00.612Z,100490
2024-03-02T06:39:00.491Z,100500
2024-03-02T06:40:00.658Z,100500
2024-03-02T06:41:01.116Z,100500
2024-03-02T06:42:00.656Z,100500
2024-03-02T06:43:00.561Z,100500
2024-03-02T06:44:00.462Z,100500
2024-03-02T06:45:00.781Z,100500
2024-03-02T06:46:00.590Z,100500
2024-03-02T06:47:00.499Z,100510
2024-03-02T06:48:00.514Z,100510
2024-03-02T06:49:00.612Z,100510
2024-03-02T06:50:00.516Z,100510
2024-03-02T06:51:00.468Z,100500
2024-03-02T06:52:00.550Z,100500
2024-03-02T06:53:00.530Z,100510
2024-03-02T06:54:00.490Z,100510
2024-03-02T06:55:00.598Z,100510
2024-03-02T06:56:00.511Z,100510
2024-03-02T06:57:00.580Z,100520
2024-03-02T06:58:00.541Z,100520
2024-03-02T06:59:00.549Z,100520
2024-03-02T07:00:00.922Z,100520
2024-03-02T07:01:01.556Z,100520
2024-03-02T07:02:00.463Z,100520
2024-03-02T07:03:00.517Z,100530
2024-03-02T07:04:00.639Z,100530
2024-03-02T07:05:00.493Z,100530
2024-03-02T07:06:00.482Z,100530
2024-03-02T07:07:00.557Z,100530
2024-03-02T07:08:00.508Z,100530
2024-03-02T07:09:00.476Z,100530
2024-03-02T07:10:00.952Z,100530
2024-03-02T07:11:00.668Z,100530
2024-03-02T07:12:00.494Z,100530
2024-03-02T07:13:00.802Z,100540
2024-03-02T07:14:00.479Z,100540
2024-03-02T07:15:00.513Z,100540
2024-03-02T07:16:00.522Z,100540
2024-03-02T07:17:00.484Z,100540
2024-03-02T07:18:00.512Z,100540
2024-03-02T07:19:00.616Z,100550
2024-03-02T07:20:00.482Z,100550
2024-03-02T07:21:01.728Z,100550
2024-03-02T07:22:00.528Z,100550
2024-03-02T07:23:00.478Z,100550
2024-03-02T07:24:00.471Z,100550
2024-03-02T07:25:00.520Z,100550
2024-03-02T07:27:01.868Z,100550
2024-03-02T07:28:00.549Z,100550
2024-03-02T07:29:00.962Z,100560
2024-03-02T07:30:01.117Z,100560
2024-03-02T07:31:02.333Z,100560
2024-03-02T07:32:00.477Z,100560
2024-03-02T07:33:00.518Z,100560
2024-03-02T07:34:00.576Z,100560
2024-03-02T07:35:00.491Z,100560
2024-03-02T07:36:03.148Z,100560
2024-03-02T07:37:00.833Z,100560
2024-03-02T07:38:00.568Z,100560
2024-03-02T07:39:00.615Z,100570
2024-03-02T07:40:00.696Z,100570
2024-03-02T07:41:00.784Z,100570
2024-03-02T07:42:00.608Z,100570
2024-03-02T07:43:00.587Z,100570
2024-03-02T07:44:00.518Z,100570
2024-03-02T07:45:00.560Z,100570
2024-03-02T07:46:00.649Z,100570
2024-03-02T07:47:00.570Z,100570
2024-03-02T07:48:00.914Z,100570
2024-03-02T07:49:00.575Z,100570
2024-03-02T07:50:00.671Z,100570
2024-03-02T07:51:00.514Z,100570
2024-03-02T07:52:00.605Z,100570
2024-03-02T07:53:00.968Z,100580
2024-03-02T07:54:00.549Z,100580
2024-03-02T07:55:00.547Z,100580
2024-03-02T07:56:00.848Z,100580
2024-03-02T07:57:00.629Z,100580
2024-03-02T07:58:01.220Z,100580
2024-03-02T07:59:02.360Z,100580
2024-03-02T08:00:00.944Z,100580
2024-03-02T08:01:01.450Z,100580
2024-03-02T08:02:00.672Z,100580
2024-03-02T08:03:00.793Z,100580
2024-03-02T08:04:01.293Z,100580
2024-03-02T08:05:01.090Z,100590
2024-03-02T08:06:00.549Z,100590
2024-03-02T08:07:00.614Z,100580
2024-03-02T08:08:00.561Z,100580
2024-03-02T08:09:01.026Z,100580
2024-03-02T08:10:00.655Z,100580
2024-03-02T08:11:02.025Z,100580
2024-03-02T08:12:00.574Z,100580
2024-03-02T08:13:00.628Z,100590
2024-03-02T08:14:00.539Z,100590
2024-03-02T08:15:00.551Z,100590
2024-03-02T08:16:00.810Z,100590
2024-03-02T08:17:00.532Z,100590
2024-03-02T08:18:00.634Z,100590
2024-03-02T08:19:00.671Z,100590
2024-03-02T08:20:00.602Z,100590
2024-03-02T08:21:00.538Z,100590
2024-03-02T08:22:00.838Z,100590
2024-03-02T08:23:00.555Z,100590
2024-03-02T08:24:02.015Z,100590
2024-03-02T08:25:00.757Z,100600
2024-03-02T08:26:00.585Z,100600
2024-03-02T08:27:00.632Z,100590
2024-03-02T08:28:00.662Z,100590
2024-03-02T08:29:00.897Z,100590
2024-03-02T08:30:00.548Z,100590
2024-03-02T08:31:00.587Z,100600
2024-03-02T08:32:00.715Z,100600
2024-03-02T08:33:00.549Z,100600
2024-03-02T08:34:00.597Z,100600
2024-03-02T08:35:00.591Z,100600
2024-03-02T08:36:00.528Z,100600
2024-03-02T08:37:00.757Z,100600
2024-03-02T08:38:00.589Z,100600
2024-03-02T08:39:00.556Z,100600
2024-03-02T08:40:00.744Z,100600
2024-03-02T08:41:01.016Z,100600
2024-03-02T08:42:00.579Z,100600
2024-03-02T08:43:00.603Z,100610
2024-03-02T08:44:00.608Z,100610
2024-03-02T08:45:00.809Z,100610
2024-03-02T08:46:00.614Z,100610
2024-03-02T08:47:00.604Z,100610
2024-03-02T08:48:00.595Z,100610
2024-03-02T08:49:00.645Z,100610
2024-03-02T08:50:02.057Z,100610
2024-03-02T08:51:00.556Z,100610
2024-03-02T08:52:00.702Z,100610
2024-03-02T08:53:00.778Z,100610
2024-03-02T08:54:00.520Z,100610
2024-03-02T08:55:00.602Z,100610
2024-03-02T08:56:03.071Z,100610
2024-03-02T08:57:00.537Z,100610
2024-03-02T08:58:00.755Z,100610
2024-03-02T08:59:00.562Z,100610
2024-03-02T09:00:00.712Z,100610
2024-03-02T09:01:01.299Z,100610
2024-03-02T09:02:00.731Z,100610
2024-03-02T09:03:00.701Z,100610
2024-03-02T09:04:00.702Z,100610
2024-03-02T09:05:00.784Z,100610
2024-03-02T09:06:00.607Z,100610
2024-03-02T09:07:00.747Z,100610
2024-03-02T09:08:00.530Z,100610
2024-03-02T09:09:00.528Z,100620
2024-03-02T09:10:00.849Z,100620
2024-03-02T09:11:00.536Z,100620
2024-03-02T09:12:00.683Z,100620
2024-03-02T09:13:00.702Z,100620
2024-03-02T09:14:00.558Z,100620
2024-03-02T09:15:01.191Z,100620
2024-03-02T09:16:00.620Z,100620
2024-03-02T09:17:00.643Z,100620
2024-03-02T09:18:00.524Z,100620
2024-03-02T09:19:00.663Z,100620
2024-03-02T09:20:00.575Z,100620
2024-03-02T09:21:00.722Z,100620
2024-03-02T09:22:00.702Z,100620
2024-03-02T09:23:00.573Z,100630
2024-03-02T09:24:00.518Z,100630
2024-03-02T09:25:00.663Z,100620
2024-03-02T09:26:00.520Z,100620
2024-03-02T09:27:00.538Z,100630
2024-03-02T09:28:00.670Z,100630
2024-03-02T09:29:00.531Z,100630
2024-03-02T09:30:00.524Z,100630
2024-03-02T09:31:01.296Z,100630
2024-03-02T09:32:00.528Z,100630
2024-03-02T09:34:00.627Z,100630
2024-03-02T09:35:00.583Z,100630
2024-03-02T09:36:00.533Z,100630
2024-03-02T09:37:00.655Z,100640
2024-03-02T09:38:00.528Z,100640
2024-03-02T09:39:00.697Z,100640
2024-03-02T09:40:00.749Z,100640
2024-03-02T09:41:01.861Z,100640
2024-03-02T09:42:00.650Z,100640
2024-03-02T09:43:00.986Z,100640
2024-03-02T09:44:00.575Z,100640
2024-03-02T09:45:00.898Z,100640
2024-03-02T09:46:00.890Z,100640
2024-03-02T09:47:00.610Z,100640
2024-03-02T09:48:00.665Z,100640
2024-03-02T09:49:00.643Z,100640
2024-03-02T09:50:00.593Z,100640
2024-03-02T09:51:00.718Z,100640
2024-03-02T09:52:00.844Z,100640
2024-03-02T09:53:00.567Z,100640
2024-03-02T09:54:09.678Z,100640
2024-03-02T09:55:00.571Z,100640
2024-03-02T09:56:00.904Z,100640
2024-03-02T09:57:01.756Z,100640
2024-03-02T09:58:00.572Z,100640
2024-03-02T09:59:00.527Z,100640
2024-03-02T10:00:00.606Z,100640
2024-03-02T10:01:00.725Z,100640
2024-03-02T10:02:01.507Z,100640
2024-03-02T10:03:00.537Z,100640
2024-03-02T10:04:00.938Z,100640
2024-03-02T10:05:00.531Z,100640
2024-03-02T10:06:19.360Z,100640
2024-03-02T10:07:11.301Z,100630
2024-03-02T10:08:01.597Z,100630
2024-03-02T10:11:00.551Z,100620
2024-03-02T10:12:04.467Z,100620
2024-03-02T10:13:04.301Z,100620
2024-03-02T10:14:05.338Z,100620
2024-03-02T10:15:03.335Z,100630
2024-03-02T10:16:11.515Z,100630
2024-03-02T10:17:02.860Z,100630
2024-03-02T10:19:15.075Z,100630
2024-03-02T10:20:21.103Z,100630
2024-03-02T10:21:13.194Z,100630
2024-03-02T10:22:04.451Z,100630
2024-03-02T10:25:00.821Z,100640
2024-03-02T10:26:00.611Z,100640
2024-03-02T10:27:00.522Z,100640
2024-03-02T10:30:02.591Z,100640
2024-03-02T10:31:00.590Z,100650
2024-03-02T10:32:02.014Z,100650
2024-03-02T10:33:01.077Z,100650
2024-03-02T10:34:00.592Z,100650
2024-03-02T10:35:00.734Z,100650
2024-03-02T10:36:00.562Z,100650
2024-03-02T10:37:01.937Z,100650
2024-03-02T10:38:00.517Z,100650
2024-03-02T10:39:02.550Z,100650
2024-03-02T10:40:05.093Z,100650
2024-03-02T10:41:01.858Z,100650
2024-03-02T10:42:01.872Z,100650
2024-03-02T10:43:02.488Z,100650
2024-03-02T10:44:02.410Z,100650
2024-03-02T10:45:00.571Z,100650
2024-03-02T10:46:00.720Z,100650
2024-03-02T10:47:02.937Z,100650
2024-03-02T10:48:01.974Z,100650
2024-03-02T10:49:02.902Z,100650
2024-03-02T10:50:00.897Z,100650
2024-03-02T10:51:00.481Z,100650
2024-03-02T10:52:00.919Z,100650
2024-03-02T10:53:00.465Z,100650
2024-03-02T10:54:01.064Z,100650
2024-03-02T10:55:00.645Z,100650
2024-03-02T10:56:03.181Z,100650
2024-03-02T10:57:00.510Z,100650
2024-03-02T10:58:00.805Z,100650
2024-03-02T10:59:02.770Z,100650
2024-03-02T11:00:02.779Z,100650
2024-03-02T11:01:03.063Z,100650
2024-03-02T11:02:05.281Z,100650
2024-03-02T11:03:05.078Z,100660
2024-03-02T11:04:02.261Z,100660
2024-03-02T11:05:04.483Z,100660
2024-03-02T11:06:00.648Z,100660
2024-03-02T11:07:04.127Z,100660
2024-03-02T11:08:02.970Z,100660
2024-03-02T11:09:04.619Z,100660
2024-03-02T11:10:01.392Z,100660
2024-03-02T11:11:06.488Z,100650
2024-03-02T11:12:03.739Z,100650
2024-03-02T11:13:01.998Z,100650
2024-03-02T11:14:01.574Z,100650
2024-03-02T11:15:00.750Z,100650
2024-03-02T11:16:05.572Z,100650
2024-03-02T11:17:02.031Z,100650
2024-03-02T11:18:00.839Z,100650
2024-03-02T11:19:03.590Z,100650
2024-03-02T11:20:00.609Z,100650
2024-03-02T11:21:03.040Z,100650
2024-03-02T11:22:02.474Z,100650
2024-03-02T11:23:05.270Z,100650
2024-03-02T11:24:00.493Z,100650
2024-03-02T11:25:00.486Z,100650
2024-03-02T11:26:20.696Z,100650
2024-03-02T11:27:01.253Z,100650
2024-03-02T11:28:01.784Z,100650
2024-03-02T11:29:00.511Z,100640
2024-03-02T11:30:00.488Z,100640
2024-03-02T11:31:00.519Z,100640
2024-03-02T11:32:00.848Z,100640
2024-03-02T11:33:00.864Z,100650
2024-03-02T11:34:17.009Z,100650
2024-03-02T11:35:02.041Z,100640
2024-03-02T11:36:00.630Z,100640
2024-03-02T11:37:02.437Z,100630
2024-03-02T11:38:01.172Z,100630
2024-03-02T11:39:00.607Z,100640
2024-03-02T11:40:00.800Z,100640
2024-03-02T11:41:01.365Z,100630
2024-03-02T11:42:00.532Z,100630
2024-03-02T11:43:00.642Z,100630
2024-03-02T11:44:03.805Z,100630
2024-03-02T11:45:00.503Z,100630
2024-03-02T11:46:01.029Z,100630
2024-03-02T11:47:01.277Z,100630
2024-03-02T11:48:00.781Z,100630
2024-03-02T11:49:00.517Z,100630
2024-03-02T11:50:00.470Z,100630
2024-03-02T11:51:00.915Z,100620
2024-03-02T11:52:01.289Z,100620
2024-03-02T11:53:00.804Z,100620
2024-03-02T11:54:02.869Z,100620
2024-03-02T11:55:02.182Z,100620
2024-03-02T11:56:01.491Z,100620
2024-03-02T11:57:01.876Z,100620
2024-03-02T11:58:01.754Z,100620
2024-03-02T11:59:00.977Z,100620
2024-03-02T12:00:00.505Z,100620
2024-03-02T12:01:00.894Z,100610
2024-03-02T12:02:00.628Z,100610
2024-03-02T12:04:00.626Z,100620
2024-03-02T12:05:02.812Z,100610
2024-03-02T12:06:00.710Z,100610
2024-03-02T12:07:00.778Z,100610
2024-03-02T12:08:02.656Z,100610
2024-03-02T12:09:00.563Z,100610
2024-03-02T12:10:01.111Z,100610
2024-03-02T12:11:01.423Z,100610
2024-03-02T12:12:03.541Z,100610
2024-03-02T12:13:01.732Z,100610
2024-03-02T12:14:00.454Z,100610
2024-03-02T12:15:00.712Z,100610
2024-03-02T12:16:00.793Z,100610
2024-03-02T12:17:00.650Z,100610
2024-03-02T12:18:01.394Z,100610
2024-03-02T12:19:00.512Z,100610
2024-03-02T12:20:00.498Z,100610
2024-03-02T12:21:00.665Z,100600
2024-03-02T12:22:00.578Z,100600
2024-03-02T12:23:01.524Z,100600
2024-03-02T12:24:01.303Z,100600
2024-03-02T12:25:00.794Z,100610
2024-03-02T12:26:00.582Z,100610
2024-03-02T12:27:00.519Z,100600
2024-03-02T12:28:01.063Z,100600
2024-03-02T12:29:00.618Z,100600
2024-03-02T12:30:00.552Z,100600
2024-03-02T12:31:00.626Z,100600
2024-03-02T12:32:00.526Z,100600
2024-03-02T12:33:00.514Z,100600
2024-03-02T12:34:00.622Z,100600
2024-03-02T12:35:00.495Z,100600
2024-03-02T12:36:00.486Z,100600
2024-03-02T12:37:00.601Z,100590
2024-03-02T12:38:00.497Z,100590